Time;durP1;ratioP1;P1;durP2;ratioP2;P2;SDS_P1;SDS_P2;PMS_P1;PMS_P2;Temp;Humidity;BMP_temperature;BMP_pressure;BME280_temperature;BME280_humidity;BME280_pressure;Samples;Min_cycle;Max_cycle;Signal;HPM_P1;HPM_P2
2023/09/02 00:00:25;;;;;;;20.38;11.02;;;;;;;13.96;100.00;100938.19;5028652;28;20239;-61
2023/09/02 00:02:52;;;;;;;16.33;10.75;;;;;;;13.90;100.00;100948.25;5029613;28;20107;-60
2023/09/02 00:05:19;;;;;;;15.18;11.10;;;;;;;13.85;100.00;100939.78;5028286;28;20600;-60
2023/09/02 00:07:47;;;;;;;13.32;11.13;;;;;;;13.82;100.00;100942.63;5028013;28;20375;-60
2023/09/02 00:10:14;;;;;;;14.95;10.60;;;;;;;13.80;100.00;100946.34;5040828;28;20598;-61
2023/09/02 00:12:42;;;;;;;16.15;12.02;;;;;;;13.78;100.00;100945.56;5033554;28;20167;-60
2023/09/02 00:15:09;;;;;;;16.95;11.60;;;;;;;13.75;100.00;100945.78;5038949;28;20489;-61
2023/09/02 00:17:36;;;;;;;15.77;11.02;;;;;;;13.76;100.00;100950.97;5028782;28;20095;-62
2023/09/02 00:20:10;;;;;;;15.00;11.60;;;;;;;13.75;100.00;100949.28;5037289;28;20416;-60
2023/09/02 00:22:37;;;;;;;19.70;13.43;;;;;;;13.77;100.00;100943.88;5027648;28;20188;-59
2023/09/02 00:25:05;;;;;;;17.33;12.32;;;;;;;13.76;100.00;100948.34;5026626;28;20049;-61
2023/09/02 00:27:32;;;;;;;16.45;12.50;;;;;;;13.77;100.00;100954.47;5026743;28;20132;-60
2023/09/02 00:29:59;;;;;;;16.95;11.13;;;;;;;13.73;100.00;100953.81;5035242;28;20050;-60
2023/09/02 00:32:28;;;;;;;16.35;11.75;;;;;;;13.70;100.00;100946.09;5033136;28;20053;-60
2023/09/02 00:34:56;;;;;;;18.15;12.32;;;;;;;13.67;100.00;100947.16;5034177;28;20049;-61
2023/09/02 00:37:23;;;;;;;17.58;11.60;;;;;;;13.66;100.00;100949.91;5033276;28;20063;-63
2023/09/02 00:39:51;;;;;;;14.63;11.80;;;;;;;13.64;100.00;100952.66;5029381;28;20049;-61
2023/09/02 00:42:19;;;;;;;14.07;11.15;;;;;;;13.62;100.00;100951.91;5031585;28;20528;-63
2023/09/02 00:44:47;;;;;;;15.95;12.63;;;;;;;13.61;100.00;100944.91;5037253;28;20480;-59
2023/09/02 00:47:14;;;;;;;15.80;11.77;;;;;;;13.60;100.00;100948.53;5007034;28;20064;-62
2023/09/02 00:49:42;;;;;;;16.08;10.50;;;;;;;13.58;100.00;100945.13;5014211;28;20064;-60
2023/09/02 00:52:09;;;;;;;18.42;12.05;;;;;;;13.57;100.00;100950.50;5008069;28;20172;-59
2023/09/02 00:54:36;;;;;;;16.50;12.35;;;;;;;13.55;100.00;100953.25;5008492;28;20463;-58
2023/09/02 00:57:04;;;;;;;15.40;11.48;;;;;;;13.51;100.00;100949.13;5014307;28;20061;-60
2023/09/02 00:59:32;;;;;;;16.33;11.48;;;;;;;13.50;100.00;100951.84;5037016;28;20140;-60
2023/09/02 01:02:01;;;;;;;17.90;12.32;;;;;;;13.48;100.00;100954.63;5035994;28;20044;-62
2023/09/02 01:04:28;;;;;;;15.88;11.02;;;;;;;13.48;100.00;100951.97;5018537;28;20055;-61
2023/09/02 01:06:56;;;;;;;15.18;11.80;;;;;;;13.48;100.00;100951.97;5038087;28;20083;-58
2023/09/02 01:09:23;;;;;;;16.52;11.40;;;;;;;13.46;100.00;100942.44;5031372;28;20124;-61
2023/09/02 01:11:51;;;;;;;15.32;10.93;;;;;;;13.45;100.00;100954.81;5028842;28;20140;-63
2023/09/02 01:14:19;;;;;;;19.92;12.45;;;;;;;13.42;100.00;100947.94;5008447;28;20059;-61
2023/09/02 01:16:46;;;;;;;20.33;12.32;;;;;;;13.42;100.00;100947.94;5021438;28;20127;-62
2023/09/02 01:19:16;;;;;;;13.57;11.57;;;;;;;13.40;100.00;100954.25;5012263;28;20085;-61
2023/09/02 01:22:08;;;;;;;15.75;11.50;;;;;;;13.39;100.00;100957.88;5019380;28;20203;-61
2023/09/02 01:25:06;;;;;;;19.30;12.50;;;;;;;13.38;100.00;100962.31;5024435;28;20188;-63
2023/09/02 01:27:55;;;;;;;19.27;12.98;;;;;;;13.37;100.00;100962.38;5025134;28;20052;-59
2023/09/02 01:30:26;;;;;;;16.70;11.93;;;;;;;13.36;100.00;100961.53;5001870;28;20045;-63
2023/09/02 01:32:54;;;;;;;16.45;12.52;;;;;;;13.36;100.00;100966.84;5011780;28;20061;-58
2023/09/02 01:35:24;;;;;;;19.00;12.70;;;;;;;13.34;100.00;100968.75;5034898;28;20095;-59
2023/09/02 01:37:57;;;;;;;17.50;12.70;;;;;;;13.33;100.00;100976.78;5034683;28;20128;-58
2023/09/02 01:40:26;;;;;;;17.83;12.82;;;;;;;13.31;100.00;100963.63;5029105;28;20060;-61
2023/09/02 01:42:57;;;;;;;16.83;12.00;;;;;;;13.28;100.00;100977.06;5039003;28;20203;-61
2023/09/02 01:45:27;;;;;;;15.95;12.68;;;;;;;13.27;100.00;100974.50;5033132;28;20056;-60
2023/09/02 01:47:56;;;;;;;17.42;12.82;;;;;;;13.25;100.00;100979.06;5029135;28;20045;-59
2023/09/02 01:50:25;;;;;;;17.33;14.25;;;;;;;13.24;100.00;100977.34;5034666;28;20141;-60
2023/09/02 01:52:54;;;;;;;17.58;13.57;;;;;;;13.22;100.00;100980.09;5031337;28;20073;-61
2023/09/02 01:55:21;;;;;;;20.60;13.68;;;;;;;13.21;100.00;100980.19;5032968;28;20135;-62
2023/09/02 01:57:49;;;;;;;16.15;13.57;;;;;;;13.20;100.00;100981.13;5012845;28;20061;-62
2023/09/02 02:00:16;;;;;;;17.05;13.45;;;;;;;13.18;100.00;100984.69;5040651;28;20056;-61
2023/09/02 02:02:46;;;;;;;15.05;13.43;;;;;;;13.17;100.00;100990.94;5032139;28;20050;-62
2023/09/02 02:05:15;;;;;;;16.23;12.75;;;;;;;13.15;100.00;100998.13;5033618;28;20689;-63
2023/09/02 02:07:47;;;;;;;17.90;13.75;;;;;;;13.14;100.00;100991.13;4989371;28;20132;-62
2023/09/02 02:10:16;;;;;;;19.50;14.73;;;;;;;13.11;100.00;100996.63;5036392;28;20168;-60
2023/09/02 02:12:44;;;;;;;18.13;13.70;;;;;;;13.08;100.00;100996.81;5027559;28;20137;-62
2023/09/02 02:15:12;;;;;;;21.25;14.98;;;;;;;13.06;100.00;101006.66;5037647;28;20128;-56
2023/09/02 02:17:39;;;;;;;23.13;14.40;;;;;;;13.05;100.00;101012.00;5030759;28;20049;-59
2023/09/02 02:20:09;;;;;;;18.75;14.73;;;;;;;13.02;100.00;101009.59;5033518;28;20053;-63
2023/09/02 02:22:36;;;;;;;23.75;15.52;;;;;;;13.01;100.00;101011.34;5028169;28;20045;-61
2023/09/02 02:25:04;;;;;;;17.58;13.98;;;;;;;12.99;100.00;101015.91;5027984;28;20710;-60
2023/09/02 02:27:31;;;;;;;18.85;13.93;;;;;;;12.97;100.00;101011.63;5033213;28;20556;-60
2023/09/02 02:29:58;;;;;;;20.65;15.23;;;;;;;12.96;100.00;101009.94;5039892;28;20053;-59
2023/09/02 02:32:26;;;;;;;19.15;14.95;;;;;;;12.95;100.00;101011.75;5029035;28;20536;-59
2023/09/02 02:34:54;;;;;;;20.25;14.75;;;;;;;12.93;100.00;101018.94;5023977;28;20055;-58
2023/09/02 02:37:21;;;;;;;17.88;13.52;;;;;;;12.91;100.00;101019.00;5032568;28;20124;-61
2023/09/02 02:39:48;;;;;;;16.83;12.80;;;;;;;12.89;100.00;101017.41;5031293;28;20115;-60
2023/09/02 02:42:15;;;;;;;17.17;15.07;;;;;;;12.86;100.00;101012.31;5032131;28;20140;-61
2023/09/02 02:44:42;;;;;;;20.25;14.57;;;;;;;12.84;100.00;101016.88;5036981;28;20049;-59
2023/09/02 02:47:10;;;;;;;19.80;14.55;;;;;;;12.83;100.00;101016.03;5031768;28;20064;-62
2023/09/02 02:49:37;;;;;;;19.48;15.57;;;;;;;12.81;100.00;101020.53;5027983;28;20055;-63
2023/09/02 02:52:04;;;;;;;26.60;15.13;;;;;;;12.80;100.00;101021.47;5039517;28;20099;-61
2023/09/02 02:54:32;;;;;;;16.60;14.13;;;;;;;12.79;100.00;101024.19;5034544;28;20144;-59
2023/09/02 02:56:59;;;;;;;21.58;15.13;;;;;;;12.78;100.00;101033.06;5030893;28;20073;-60
2023/09/02 02:59:26;;;;;;;16.35;13.60;;;;;;;12.77;100.00;101032.22;5040227;28;20056;-59
2023/09/02 03:01:54;;;;;;;19.48;14.35;;;;;;;12.76;100.00;101034.97;5043532;28;20122;-63
2023/09/02 03:04:21;;;;;;;18.00;14.55;;;;;;;12.75;100.00;101031.50;5035067;28;20571;-62
2023/09/02 03:06:48;;;;;;;20.48;14.93;;;;;;;12.72;100.00;101031.66;5031941;28;20049;-59
2023/09/02 03:09:16;;;;;;;22.17;14.90;;;;;;;12.72;100.00;101033.47;5028072;28;20149;-60
2023/09/02 03:11:43;;;;;;;21.83;16.63;;;;;;;12.70;100.00;101027.41;5041775;28;20148;-63
2023/09/02 03:14:10;;;;;;;18.40;14.80;;;;;;;12.70;100.00;101036.22;5039349;28;20077;-60
2023/09/02 03:16:38;;;;;;;18.48;14.45;;;;;;;12.70;100.00;101040.63;5037719;28;22427;-61
2023/09/02 03:19:05;;;;;;;17.88;13.85;;;;;;;12.68;100.00;101035.44;5026913;28;20418;-62
2023/09/02 03:21:32;;;;;;;19.42;15.77;;;;;;;12.67;100.00;101039.88;5033236;28;20628;-62
2023/09/02 03:24:00;;;;;;;18.15;14.43;;;;;;;12.65;100.00;101036.50;5026394;28;20508;-61
2023/09/02 03:26:27;;;;;;;21.38;15.00;;;;;;;12.64;100.00;101042.69;5032033;28;20295;-61
2023/09/02 03:28:55;;;;;;;22.00;14.40;;;;;;;12.65;100.00;101032.97;5035529;28;20084;-62
2023/09/02 03:31:22;;;;;;;19.38;14.60;;;;;;;12.63;100.00;101041.00;5038180;28;20049;-61
2023/09/02 03:33:49;;;;;;;19.65;14.18;;;;;;;12.62;100.00;101046.38;5033345;28;20192;-61
2023/09/02 03:36:17;;;;;;;21.48;14.70;;;;;;;12.62;100.00;101041.94;5038740;28;20080;-58
2023/09/02 03:38:44;;;;;;;20.45;15.38;;;;;;;12.62;100.00;101043.75;5036567;28;20581;-60
2023/09/02 03:41:12;;;;;;;18.80;15.43;;;;;;;12.60;100.00;101043.81;5034337;28;20054;-61
2023/09/02 03:43:40;;;;;;;19.83;14.27;;;;;;;12.61;100.00;101042.06;5039997;28;20055;-61
2023/09/02 03:46:07;;;;;;;20.17;15.60;;;;;;;12.61;100.00;101045.53;5024762;28;20149;-59
2023/09/02 03:48:34;;;;;;;22.48;14.88;;;;;;;12.60;100.00;101046.47;5031182;28;20528;-59
2023/09/02 03:51:05;;;;;;;20.17;13.93;;;;;;;12.60;100.00;101048.25;5035717;28;20049;-61
2023/09/02 03:53:32;;;;;;;20.73;14.88;;;;;;;12.60;100.00;101050.91;5029458;28;20509;-62
2023/09/02 03:56:00;;;;;;;20.30;15.20;;;;;;;12.60;100.00;101057.03;5038130;28;20051;-59
2023/09/02 03:58:28;;;;;;;21.85;15.18;;;;;;;12.60;100.00;101059.66;5031318;28;20045;-59
2023/09/02 04:00:56;;;;;;;18.73;14.38;;;;;;;12.59;100.00;101060.63;5031232;28;20091;-61
2023/09/02 04:03:25;;;;;;;22.10;15.85;;;;;;;12.57;100.00;101051.09;5035832;28;20073;-55
2023/09/02 04:05:52;;;;;;;20.00;15.02;;;;;;;12.55;100.00;101056.47;5025207;28;20052;-62
2023/09/02 04:08:22;;;;;;;16.60;14.82;;;;;;;12.53;100.00;101050.44;5033155;28;20509;-61
2023/09/02 04:10:52;;;;;;;19.00;13.77;;;;;;;12.54;100.00;101053.91;5040073;28;20224;-58
2023/09/02 04:13:29;;;;;;;17.58;14.00;;;;;;;12.54;100.00;101051.28;5030318;28;20136;-59
2023/09/02 04:15:58;;;;;;;17.35;13.27;;;;;;;12.54;100.00;101054.75;5041065;28;20045;-64
2023/09/02 04:18:25;;;;;;;20.92;13.77;;;;;;;12.55;100.00;101058.25;5032600;28;20133;-55
2023/09/02 04:20:54;;;;;;;18.35;14.70;;;;;;;12.55;100.00;101064.38;5031680;28;20553;-59
2023/09/02 04:23:22;;;;;;;18.77;13.98;;;;;;;12.54;100.00;101064.47;5026350;28;20137;-61
2023/09/02 04:25:51;;;;;;;20.35;14.75;;;;;;;12.53;100.00;101063.63;5037326;28;20049;-62
2023/09/02 04:28:19;;;;;;;20.33;14.15;;;;;;;12.52;100.00;101061.94;5032274;28;20144;-62
2023/09/02 04:30:47;;;;;;;18.73;13.05;;;;;;;12.53;100.00;101065.44;5029722;28;20054;-58
2023/09/02 04:33:16;;;;;;;18.70;14.13;;;;;;;12.55;100.00;101063.53;5027367;28;20203;-62
2023/09/02 04:35:45;;;;;;;22.00;14.45;;;;;;;12.56;100.00;101062.59;5032745;28;20646;-62
2023/09/02 04:38:12;;;;;;;19.83;13.90;;;;;;;12.56;100.00;101065.22;5031266;28;20109;-63
2023/09/02 04:40:40;;;;;;;17.98;13.10;;;;;;;12.58;100.00;101063.34;5032330;28;20061;-63
2023/09/02 04:43:09;;;;;;;15.85;12.50;;;;;;;12.61;100.00;101073.75;5035346;28;20144;-61
2023/09/02 04:45:37;;;;;;;18.13;13.13;;;;;;;12.65;100.00;101072.59;5033765;28;20140;-60
2023/09/02 04:48:06;;;;;;;21.15;13.45;;;;;;;12.70;100.00;101074.97;5030335;28;20441;-59
2023/09/02 04:50:34;;;;;;;18.20;12.60;;;;;;;12.73;100.00;101077.41;5030234;28;20049;-55
2023/09/02 04:53:02;;;;;;;14.73;11.82;;;;;;;12.78;100.00;101081.47;5031817;28;20144;-61
2023/09/02 04:55:29;;;;;;;21.08;14.32;;;;;;;12.85;100.00;101087.25;5029655;28;20057;-62
2023/09/02 04:57:57;;;;;;;15.50;12.88;;;;;;;12.88;100.00;101087.06;5036002;28;20049;-60
2023/09/02 05:00:26;;;;;;;17.58;12.77;;;;;;;12.91;100.00;101086.88;5035610;28;20085;-61
2023/09/02 05:02:54;;;;;;;17.80;12.75;;;;;;;12.95;100.00;101093.66;5026241;28;20053;-62
2023/09/02 05:05:23;;;;;;;14.20;12.48;;;;;;;13.00;100.00;101101.31;5020353;28;20466;-61
2023/09/02 05:07:50;;;;;;;14.60;12.60;;;;;;;13.04;100.00;101097.53;5025272;28;20116;-59
2023/09/02 05:10:18;;;;;;;19.95;11.68;;;;;;;13.08;100.00;101097.25;5025748;28;20140;-60
2023/09/02 05:12:45;;;;;;;16.67;11.75;;;;;;;13.12;100.00;101101.41;5029718;28;20044;-61
2023/09/02 05:15:13;;;;;;;16.70;12.65;;;;;;;13.18;100.00;101101.00;5031952;28;20072;-62
2023/09/02 05:17:40;;;;;;;17.65;12.07;;;;;;;13.26;100.00;101110.31;5023558;28;20097;-60
2023/09/02 05:20:08;;;;;;;17.52;12.20;;;;;;;13.30;100.00;101106.53;5031512;28;20049;-62
2023/09/02 05:22:36;;;;;;;16.15;12.13;;;;;;;13.36;100.00;101109.63;5025021;28;20144;-62
2023/09/02 05:25:04;;;;;;;17.38;12.75;;;;;;;13.40;100.00;101112.94;5027341;28;20069;-63
2023/09/02 05:27:32;;;;;;;14.85;12.98;;;;;;;13.46;100.00;101112.53;5027807;28;20135;-61
2023/09/02 05:29:59;;;;;;;14.90;12.50;;;;;;;13.53;100.00;101121.78;5033885;28;20132;-60
2023/09/02 05:32:26;;;;;;;15.13;11.95;;;;;;;13.57;100.00;101131.25;5012675;28;20045;-62
2023/09/02 05:34:54;;;;;;;14.70;12.27;;;;;;;13.62;100.00;101126.50;5023611;28;20077;-60
2023/09/02 05:37:21;;;;;;;18.17;13.48;;;;;;;13.70;100.00;101127.81;5033155;28;20144;-62
2023/09/02 05:39:48;;;;;;;17.58;13.13;;;;;;;13.80;100.00;101128.91;5021296;28;20137;-62
2023/09/02 05:42:15;;;;;;;14.75;11.23;;;;;;;13.89;100.00;101133.63;5040203;22;21422;-63
2023/09/02 05:44:43;;;;;;;17.73;12.43;;;;;;;13.98;100.00;101134.81;5025194;28;20456;-60
2023/09/02 05:47:10;;;;;;;21.42;12.18;;;;;;;14.09;100.00;101134.97;5036840;28;20212;-61
2023/09/02 05:49:40;;;;;;;19.88;11.15;;;;;;;14.19;100.00;101138.72;5038213;28;20049;-60
2023/09/02 05:52:07;;;;;;;17.70;11.57;;;;;;;14.26;100.00;101142.66;5033866;28;21567;-59
2023/09/02 05:54:35;;;;;;;14.75;9.43;;;;;;;14.37;100.00;101141.97;5041099;28;21139;-61
2023/09/02 05:57:02;;;;;;;12.20;9.27;;;;;;;14.52;100.00;101148.91;5038193;28;20140;-60
2023/09/02 05:59:29;;;;;;;15.38;10.05;;;;;;;14.66;100.00;101146.16;5034303;28;20084;-60
2023/09/02 06:01:58;;;;;;;15.80;10.15;;;;;;;14.80;100.00;101147.88;5039529;28;20053;-59
2023/09/02 06:04:25;;;;;;;13.77;10.30;;;;;;;14.94;100.00;101161.03;5037010;28;20049;-60
2023/09/02 06:06:54;;;;;;;13.45;9.52;;;;;;;15.03;100.00;101158.69;5032692;28;20137;-59
2023/09/02 06:09:26;;;;;;;18.70;9.15;;;;;;;15.14;100.00;101164.97;5043900;28;20145;-61
2023/09/02 06:11:53;;;;;;;12.02;8.45;;;;;;;15.25;100.00;101164.22;5037819;28;20132;-60
2023/09/02 06:14:20;;;;;;;13.73;9.45;;;;;;;15.32;100.00;101168.16;5034626;28;20074;-61
2023/09/02 06:16:49;;;;;;;12.43;8.38;;;;;;;15.40;100.00;101164.94;5034308;28;20484;-61
2023/09/02 06:19:17;;;;;;;15.20;9.52;;;;;;;15.50;100.00;101171.31;5038334;28;20045;-60
2023/09/02 06:21:45;;;;;;;12.13;7.75;;;;;;;15.64;100.00;101170.34;5039908;28;20459;-61
2023/09/02 06:24:12;;;;;;;13.05;8.20;;;;;;;15.62;100.00;101170.41;5036489;28;20115;-62
2023/09/02 06:26:40;;;;;;;12.90;7.70;;;;;;;15.67;100.00;101173.66;5028035;28;20049;-61
2023/09/02 06:29:07;;;;;;;10.88;7.45;;;;;;;15.79;100.00;101171.06;5045748;28;20103;-61
2023/09/02 06:31:36;;;;;;;10.88;7.00;;;;;;;15.94;99.81;101169.97;5024761;28;20608;-62
2023/09/02 06:34:03;;;;;;;13.23;7.38;;;;;;;16.03;97.85;101165.75;5030313;28;20136;-62
2023/09/02 06:36:31;;;;;;;10.48;7.60;;;;;;;16.07;96.93;101167.22;5033820;28;20148;-62
2023/09/02 06:38:58;;;;;;;13.88;7.13;;;;;;;15.95;95.37;101176.97;5033213;28;20049;-62
2023/09/02 06:41:25;;;;;;;12.65;7.15;;;;;;;15.98;96.27;101174.06;5028708;28;20053;-61
2023/09/02 06:43:53;;;;;;;14.07;7.05;;;;;;;16.19;96.20;101171.66;5029241;28;20053;-61
2023/09/02 06:46:20;;;;;;;10.20;7.55;;;;;;;16.30;94.69;101176.16;5029305;28;20061;-60
2023/09/02 06:48:48;;;;;;;10.63;6.70;;;;;;;16.48;94.99;101181.91;5035243;28;20080;-63
2023/09/02 06:51:15;;;;;;;14.65;7.18;;;;;;;16.47;93.36;101189.03;5045841;28;20505;-63
2023/09/02 06:53:44;;;;;;;11.40;6.75;;;;;;;16.66;93.56;101192.03;5045270;28;20240;-63
2023/09/02 06:56:12;;;;;;;10.48;7.00;;;;;;;16.64;91.96;101198.41;5046054;28;20084;-62
2023/09/02 06:58:41;;;;;;;11.13;7.50;;;;;;;16.68;91.04;101198.06;5036285;28;20073;-63
2023/09/02 07:01:24;;;;;;;11.20;6.97;;;;;;;16.95;91.36;101200.47;5034991;28;20093;-62
2023/09/02 07:03:51;;;;;;;8.55;6.18;;;;;;;17.18;91.02;101209.34;5022878;28;20053;-61
2023/09/02 07:06:19;;;;;;;12.38;6.63;;;;;;;17.36;90.25;101212.38;5031501;28;20068;-61
2023/09/02 07:08:47;;;;;;;10.73;6.85;;;;;;;17.34;87.44;101217.00;5035339;28;20136;-61
2023/09/02 07:11:14;;;;;;;11.63;6.47;;;;;;;17.32;87.44;101218.06;5025806;28;20124;-61
2023/09/02 07:13:45;;;;;;;10.48;6.40;;;;;;;17.39;86.60;101221.97;5032948;28;20111;-62
2023/09/02 07:16:13;;;;;;;14.23;7.70;;;;;;;17.52;85.09;101225.34;5031868;28;20172;-61
2023/09/02 07:18:40;;;;;;;12.90;6.35;;;;;;;17.53;85.11;101224.38;5031155;28;20049;-62
2023/09/02 07:21:07;;;;;;;8.50;4.88;;;;;;;17.71;84.67;101228.25;5028351;28;20187;-62
2023/09/02 07:23:35;;;;;;;9.10;5.95;;;;;;;17.65;81.63;101222.56;5033173;28;20096;-59
2023/09/02 07:26:05;;;;;;;9.73;5.50;;;;;;;17.73;81.69;101222.78;5014513;28;20149;-62
2023/09/02 07:28:33;;;;;;;8.00;5.13;;;;;;;17.80;80.86;101234.69;5025137;28;20137;-61
2023/09/02 07:31:07;;;;;;;11.45;5.20;;;;;;;17.99;80.37;101235.88;5026151;28;20061;-61
2023/09/02 07:33:34;;;;;;;9.07;6.18;;;;;;;18.05;78.32;101228.22;5032089;28;20498;-61
2023/09/02 07:36:12;;;;;;;8.68;5.28;;;;;;;18.18;78.75;101234.25;5031090;28;20128;-61
2023/09/02 07:38:40;;;;;;;9.95;5.93;;;;;;;18.18;75.99;101233.41;5030148;28;20137;-61
2023/09/02 07:41:09;;;;;;;9.05;5.28;;;;;;;18.27;76.63;101234.50;5025950;28;20148;-61
2023/09/02 07:43:37;;;;;;;8.70;5.20;;;;;;;18.42;76.27;101234.09;5026696;28;20045;-62
2023/09/02 07:46:04;;;;;;;9.65;5.32;;;;;;;18.55;74.21;101239.28;5021139;28;20053;-60
2023/09/02 07:48:32;;;;;;;8.10;4.85;;;;;;;18.48;71.98;101244.25;5031068;28;20060;-61
2023/09/02 07:51:00;;;;;;;8.70;4.18;;;;;;;18.62;71.67;101240.44;5029491;28;20136;-62
2023/09/02 07:53:28;;;;;;;9.07;4.13;;;;;;;18.61;69.27;101253.91;5029380;28;20137;-61
2023/09/02 07:55:56;;;;;;;8.77;4.10;;;;;;;18.76;68.88;101246.47;5024476;28;20072;-61
2023/09/02 07:58:23;;;;;;;9.98;4.43;;;;;;;18.94;67.94;101258.28;5030125;28;20049;-63
2023/09/02 08:00:50;;;;;;;8.35;4.75;;;;;;;19.00;67.22;101255.06;5028590;28;20045;-62
2023/09/02 08:03:17;;;;;;;6.18;4.18;;;;;;;18.87;67.43;101249.09;5029567;28;20587;-62
2023/09/02 08:05:45;;;;;;;12.40;3.80;;;;;;;18.96;67.54;101259.84;5012120;28;20577;-62
2023/09/02 08:08:13;;;;;;;11.75;3.60;;;;;;;19.09;66.17;101259.66;5028460;28;20124;-62
2023/09/02 08:10:41;;;;;;;7.05;3.72;;;;;;;19.22;65.13;101276.28;5027894;28;20112;-62
2023/09/02 08:13:09;;;;;;;7.53;3.72;;;;;;;18.98;64.06;101273.88;5026222;28;20621;-62
2023/09/02 08:15:37;;;;;;;7.32;4.00;;;;;;;19.06;65.04;101272.41;5027380;28;20088;-61
2023/09/02 08:18:05;;;;;;;6.72;3.42;;;;;;;19.34;64.33;101278.91;5026476;28;20080;-62
2023/09/02 08:20:35;;;;;;;9.63;3.90;;;;;;;19.31;62.45;101287.19;5022328;28;20148;-63
2023/09/02 08:23:02;;;;;;;4.90;3.28;;;;;;;19.25;63.82;101283.22;5026769;28;20444;-62
2023/09/02 08:25:30;;;;;;;6.20;3.60;;;;;;;19.31;62.62;101282.69;5024825;28;20586;-61
2023/09/02 08:27:57;;;;;;;4.38;2.90;;;;;;;19.32;61.38;101283.53;5030602;28;20063;-61
2023/09/02 08:30:24;;;;;;;7.90;3.15;;;;;;;19.27;61.09;101286.59;5026559;28;20590;-62
2023/09/02 08:32:51;;;;;;;5.03;3.45;;;;;;;19.43;60.88;101288.81;5028228;28;20592;-62
2023/09/02 08:35:19;;;;;;;7.30;2.75;;;;;;;19.63;58.44;101289.78;5028543;28;20071;-62
2023/09/02 08:37:46;;;;;;;4.57;2.80;;;;;;;19.85;58.85;101297.63;5031599;28;20044;-62
2023/09/02 08:40:14;;;;;;;5.80;3.03;;;;;;;20.07;58.29;101291.25;5026933;28;20545;-62
2023/09/02 08:42:41;;;;;;;6.05;3.40;;;;;;;20.19;58.73;101292.84;5023867;28;20080;-62
2023/09/02 08:45:09;;;;;;;6.00;3.75;;;;;;;20.09;58.35;101291.13;5027867;28;20516;-62
2023/09/02 08:47:39;;;;;;;7.47;3.33;;;;;;;20.21;57.71;101293.53;5022676;28;20120;-62
2023/09/02 08:50:10;;;;;;;8.82;3.55;;;;;;;20.46;56.30;101302.03;5029459;28;20072;-62
2023/09/02 08:52:37;;;;;;;6.45;2.80;;;;;;;20.59;54.45;101300.00;5022856;28;20136;-62
2023/09/02 08:55:07;;;;;;;5.88;2.92;;;;;;;20.53;56.08;101299.69;5029048;28;20053;-61
2023/09/02 08:57:39;;;;;;;4.47;3.13;;;;;;;20.52;56.12;101304.19;5022523;28;20480;-61
2023/09/02 09:00:07;;;;;;;4.40;2.67;;;;;;;20.85;56.35;101307.44;5023374;28;20956;-62
2023/09/02 09:02:35;;;;;;;4.10;3.08;;;;;;;21.05;54.89;101311.00;5024135;28;20081;-60
2023/09/02 09:05:03;;;;;;;13.23;3.80;;;;;;;21.22;54.97;101308.44;5028649;28;20149;-63
2023/09/02 09:07:31;;;;;;;7.80;4.30;;;;;;;21.26;54.59;101306.31;5024105;28;20085;-62
2023/09/02 09:10:01;;;;;;;7.43;2.97;;;;;;;21.08;56.48;101311.56;4999194;28;20228;-62
2023/09/02 09:12:31;;;;;;;8.23;2.85;;;;;;;21.29;55.94;101310.53;5024128;28;20085;-63
2023/09/02 09:15:01;;;;;;;3.63;2.58;;;;;;;21.38;55.83;101315.06;5028971;28;20548;-62
2023/09/02 09:17:30;;;;;;;6.22;3.05;;;;;;;21.18;55.55;101311.53;5023936;28;20049;-62
2023/09/02 09:20:00;;;;;;;8.57;3.28;;;;;;;21.20;56.09;101314.91;5024607;28;20059;-62
2023/09/02 09:22:28;;;;;;;7.57;2.92;;;;;;;21.32;56.49;101313.81;5027606;28;20411;-62
2023/09/02 09:24:56;;;;;;;5.97;2.92;;;;;;;21.59;54.87;101318.41;5024676;28;20081;-63
2023/09/02 09:27:24;;;;;;;5.35;3.13;;;;;;;20.81;55.53;101319.44;5023047;28;20053;-62
2023/09/02 09:29:52;;;;;;;6.75;2.70;;;;;;;21.30;55.16;101322.94;5026877;28;20176;-61
2023/09/02 09:32:22;;;;;;;8.13;3.00;;;;;;;21.66;54.13;101324.88;5026767;28;20536;-61
2023/09/02 09:34:50;;;;;;;9.13;3.13;;;;;;;21.77;55.22;101325.69;5018405;28;20081;-61
2023/09/02 09:37:17;;;;;;;7.47;2.78;;;;;;;22.00;55.63;101324.34;5025372;28;20591;-62
2023/09/02 09:39:46;;;;;;;3.53;2.13;;;;;;;22.42;55.08;101330.06;5033112;28;20132;-61
2023/09/02 09:42:15;;;;;;;5.43;2.70;;;;;;;22.05;53.90;101315.84;5024079;28;20124;-63
2023/09/02 09:44:53;;;;;;;4.82;2.35;;;;;;;22.03;54.13;101331.25;5024585;28;20054;-60
2023/09/02 09:47:22;;;;;;;5.30;2.33;;;;;;;22.17;54.05;101326.25;5026457;28;20087;-60
2023/09/02 09:49:49;;;;;;;6.85;3.17;;;;;;;22.30;53.52;101328.59;5022897;28;20046;-62
2023/09/02 09:52:19;;;;;;;8.40;3.10;;;;;;;22.34;52.97;101327.31;5018817;28;20136;-61
2023/09/02 09:54:48;;;;;;;7.38;3.08;;;;;;;22.28;52.60;101325.22;5035718;28;20053;-62
2023/09/02 09:57:30;;;;;;;4.88;2.17;;;;;;;22.13;52.86;101327.56;5019439;28;20068;-62
2023/09/02 09:59:57;;;;;;;7.10;2.70;;;;;;;21.64;54.79;101331.38;5025352;28;20060;-61
2023/09/02 10:02:25;;;;;;;7.05;2.65;;;;;;;22.02;54.28;101332.22;5027487;28;20152;-62
2023/09/02 10:04:57;;;;;;;4.90;3.03;;;;;;;22.04;53.77;101338.28;5028981;28;20063;-61
2023/09/02 10:07:32;;;;;;;5.75;2.83;;;;;;;21.96;54.18;101326.47;5024255;28;20071;-61
2023/09/02 10:10:01;;;;;;;5.50;2.85;;;;;;;22.47;53.81;101333.16;5028629;28;20517;-62
2023/09/02 10:12:33;;;;;;;6.18;3.17;;;;;;;22.16;54.14;101332.63;5030940;28;20049;-62
2023/09/02 10:15:05;;;;;;;6.15;2.67;;;;;;;22.13;53.89;101326.72;5033475;28;20060;-62
2023/09/02 10:17:33;;;;;;;5.00;2.38;;;;;;;22.22;53.26;101331.19;5032927;28;20522;-62
2023/09/02 10:20:00;;;;;;;3.45;2.20;;;;;;;22.29;54.28;101334.97;5033422;28;20140;-57
2023/09/02 10:22:31;;;;;;;4.38;2.28;;;;;;;22.49;53.64;101341.06;5026069;28;20514;-61
2023/09/02 10:25:05;;;;;;;6.13;2.65;;;;;;;22.60;53.64;101346.19;5029614;28;20045;-62
2023/09/02 10:27:38;;;;;;;4.53;2.45;;;;;;;22.81;52.91;101343.25;5028914;28;20149;-62
2023/09/02 10:30:29;;;;;;;6.70;2.90;;;;;;;22.85;52.79;101344.63;5029297;28;20073;-61
2023/09/02 10:33:10;;;;;;;5.60;2.30;;;;;;;23.11;53.05;101336.69;5029396;28;20531;-63
2023/09/02 10:35:42;;;;;;;4.00;2.20;;;;;;;23.27;52.18;101338.66;5032818;28;20573;-62
2023/09/02 10:38:11;;;;;;;6.50;2.55;;;;;;;23.13;52.14;101341.88;5028765;28;20045;-62
2023/09/02 10:40:40;;;;;;;4.88;2.63;;;;;;;22.81;52.78;101337.03;5029829;28;20056;-62
2023/09/02 10:43:09;;;;;;;7.38;2.83;;;;;;;23.03;53.10;101331.22;5027559;28;20065;-62
2023/09/02 10:45:37;;;;;;;6.78;2.25;;;;;;;22.85;52.44;101341.94;5032362;28;20069;-62
2023/09/02 10:48:06;;;;;;;4.55;2.63;;;;;;;23.04;52.55;101340.13;5025803;28;20144;-63
2023/09/02 10:50:34;;;;;;;6.07;2.30;;;;;;;23.16;52.57;101346.97;5030897;28;20177;-63
2023/09/02 10:53:01;;;;;;;5.18;2.17;;;;;;;23.06;51.87;101349.72;5026490;28;20059;-62
2023/09/02 10:55:58;;;;;;;4.85;2.22;;;;;;;23.11;52.23;101346.59;5030856;28;20081;-63
2023/09/02 10:58:26;;;;;;;3.72;2.17;;;;;;;22.91;52.29;101345.88;5028211;28;20058;-63
2023/09/02 11:00:54;;;;;;;4.38;1.90;;;;;;;22.91;52.05;101351.25;5030720;28;20301;-62
2023/09/02 11:03:45;;;;;;;5.35;2.00;;;;;;;22.71;52.45;101346.00;5025573;28;20533;-62
2023/09/02 11:06:15;;;;;;;3.55;2.15;;;;;;;22.81;52.59;101351.28;5030684;28;20072;-63
2023/09/02 11:08:50;;;;;;;5.53;1.90;;;;;;;22.90;52.61;101344.19;5026208;28;20624;-61
2023/09/02 11:11:18;;;;;;;;;;;;;;;23.15;52.33;101339.91;5031935;28;20148;-62
2023/09/02 11:14:07;;;;;;;6.70;2.00;;;;;;;23.41;52.04;101342.63;5029205;28;19987;-63
2023/09/02 11:16:35;;;;;;;4.47;2.30;;;;;;;22.64;53.65;101354.81;5028524;28;20142;-63
2023/09/02 11:19:08;;;;;;;6.35;2.35;;;;;;;22.57;53.58;101349.19;5031054;28;20470;-60